Time;durP1;ratioP1;P1;durP2;ratioP2;P2;SDS_P1;SDS_P2;PMS_P1;PMS_P2;Temp;Humidity;BMP_temperature;BMP_pressure;BME280_temperature;BME280_humidity;BME280_pressure;Samples;Min_cycle;Max_cycle;Signal;HPM_P1;HPM_P2
2023/01/13 00:00:44;;;;;;;;;0.00;0.00;;;;;12.38;83.29;100507.22;5099783;27;45438;-62
2023/01/13 00:03:09;;;;;;;;;1.00;0.00;;;;;12.28;83.89;100504.28;5078564;27;45271;-59
2023/01/13 00:05:36;;;;;;;;;0.67;0.00;;;;;12.26;84.91;100498.19;5109153;27;45289;-60
2023/01/13 00:08:04;;;;;;;;;0.00;0.00;;;;;12.24;84.55;100488.56;5099158;27;45274;-62
2023/01/13 00:10:29;;;;;;;;;0.00;0.00;;;;;12.15;83.96;100482.03;5107816;27;45418;-60
2023/01/13 00:12:55;;;;;;;;;0.00;0.00;;;;;12.14;83.33;100482.13;5118962;27;45438;-60
2023/01/13 00:15:20;;;;;;;;;0.00;0.00;;;;;12.14;83.21;100482.97;5117759;27;45456;-67
2023/01/13 00:17:47;;;;;;;;;1.00;0.00;;;;;12.18;82.55;100472.97;5107574;27;45544;-65
2023/01/13 00:20:13;;;;;;;;;0.00;0.00;;;;;12.17;81.56;100466.78;5099045;27;46354;-66
2023/01/13 00:22:39;;;;;;;;;0.33;0.00;;;;;12.18;81.44;100463.16;5108760;27;45379;-69
2023/01/13 00:25:05;;;;;;;;;2.00;0.00;;;;;12.20;81.52;100487.91;5100317;27;45432;-61
2023/01/13 00:27:31;;;;;;;;;0.00;0.00;;;;;12.16;80.24;100475.72;5098723;27;45496;-68
2023/01/13 00:29:56;;;;;;;;;0.67;0.00;;;;;12.16;79.71;100480.22;5109405;27;45220;-68
2023/01/13 00:32:22;;;;;;;;;0.00;0.00;;;;;12.15;80.55;100478.50;5100918;27;45347;-58
2023/01/13 00:34:47;;;;;;;;;0.00;0.00;;;;;12.10;80.18;100466.31;5098806;27;45331;-61
2023/01/13 00:37:13;;;;;;;;;0.00;0.00;;;;;12.14;79.68;100469.66;5099043;27;45505;-60
2023/01/13 00:39:39;;;;;;;;;1.00;0.00;;;;;12.04;79.62;100461.38;5089761;27;45371;-61
2023/01/13 00:44:49;;;;;;;;;0.00;0.00;;;;;12.10;79.46;100476.97;5097960;27;45421;-65
2023/01/13 00:47:14;;;;;;;;;0.00;0.00;;;;;12.09;79.78;100477.06;5105476;27;47260;-63
2023/01/13 00:49:40;;;;;;;;;0.00;0.00;;;;;12.08;79.12;100472.69;5098809;27;45358;-66
2023/01/13 00:52:05;;;;;;;;;0.00;0.00;;;;;12.05;78.85;100449.75;5098618;27;45459;-67
2023/01/13 00:54:31;;;;;;;;;0.00;0.00;;;;;12.08;78.28;100446.03;5087520;27;45380;-60
2023/01/13 00:56:56;;;;;;;;;0.00;0.00;;;;;12.03;77.37;100456.16;5106849;27;45325;-64
2023/01/13 00:59:21;;;;;;;;;0.00;0.00;;;;;11.94;77.84;100433.59;5112380;27;45860;-63
2023/01/13 01:01:50;;;;;;;;;1.00;0.00;;;;;11.99;77.62;100449.31;5098047;27;45362;-67
2023/01/13 01:04:18;;;;;;;;;0.00;0.00;;;;;12.01;77.45;100460.72;5113745;27;45375;-65
2023/01/13 01:06:44;;;;;;;;;0.00;0.00;;;;;11.99;77.24;100458.16;5117504;27;45376;-68
2023/01/13 01:09:13;;;;;;;;;0.00;0.00;;;;;12.01;77.11;100455.41;5092241;27;46705;-62
2023/01/13 01:11:39;;;;;;;;;0.00;0.00;;;;;11.94;77.00;100456.72;5097762;27;45441;-60
2023/01/13 01:14:04;;;;;;;;;1.00;0.00;;;;;12.02;77.11;100467.78;5097910;27;45356;-66
2023/01/13 01:16:31;;;;;;;;;0.00;0.00;;;;;12.01;77.04;100471.38;5097972;27;45638;-66
2023/01/13 01:18:58;;;;;;;;;0.00;0.00;;;;;11.99;76.36;100467.97;5096917;27;45448;-71
2023/01/13 01:21:25;;;;;;;;;0.00;0.00;;;;;11.98;76.84;100474.22;5099423;27;45542;-65
2023/01/13 01:23:50;;;;;;;;;3.00;0.00;;;;;11.92;76.94;100459.50;5097671;27;45350;-68
2023/01/13 01:26:23;;;;;;;;;1.00;0.00;;;;;11.91;76.35;100459.59;5098030;27;45626;-64
2023/01/13 01:28:49;;;;;;;;;0.00;0.00;;;;;11.94;75.89;100460.25;5077114;27;46466;-66
2023/01/13 01:31:17;;;;;;;;;0.00;0.00;;;;;11.88;75.67;100463.31;5126197;27;45401;-70
2023/01/13 01:33:43;;;;;;;;;0.00;0.00;;;;;11.86;75.79;100448.38;5117795;27;45298;-68
2023/01/13 01:36:10;;;;;;;;;0.00;0.00;;;;;11.81;75.29;100449.50;5114892;27;45610;-69
2023/01/13 01:38:36;;;;;;;;;0.00;0.00;;;;;11.86;75.45;100459.03;5118064;27;47185;-70
2023/01/13 01:41:02;;;;;;;;;0.00;0.00;;;;;11.87;75.19;100455.44;5093364;27;45311;-66
2023/01/13 01:43:58;;;;;;;;;1.00;0.00;;;;;11.87;73.63;100463.41;5076853;27;45348;-66
2023/01/13 01:46:28;;;;;;;;;0.00;0.00;;;;;11.81;73.58;100460.16;5077005;28;45416;-70
2023/01/13 01:48:58;;;;;;;;;0.00;0.00;;;;;11.85;73.31;100457.31;5076822;27;46500;-67
2023/01/13 01:51:28;;;;;;;;;0.00;0.00;;;;;11.85;73.26;100458.19;5102957;27;45455;-61
2023/01/13 01:53:56;;;;;;;;;1.33;0.00;;;;;11.84;73.30;100459.13;5109496;27;45292;-62
2023/01/13 01:56:24;;;;;;;;;1.00;0.00;;;;;11.77;72.96;100452.44;5118582;27;45552;-69
2023/01/13 01:58:52;;;;;;;;;0.00;0.00;;;;;11.74;72.36;100463.31;5109427;27;47291;-61
2023/01/13 02:01:18;;;;;;;;;2.00;1.00;;;;;11.71;73.09;100463.47;5110374;27;45255;-62
2023/01/13 02:04:00;;;;;;;;;0.00;0.00;;;;;11.67;73.25;100476.13;5100770;27;45443;-66
2023/01/13 02:06:28;;;;;;;;;0.00;0.00;;;;;11.68;72.45;100474.31;5099105;27;45434;-68
2023/01/13 02:08:54;;;;;;;;;0.00;0.00;;;;;11.66;72.75;100479.75;5096012;27;45929;-65
2023/01/13 02:14:11;;;;;;;;;0.00;0.00;;;;;11.61;72.77;100489.84;5097648;27;45394;-66
2023/01/13 02:16:45;;;;;;;;;0.00;0.00;;;;;11.57;72.77;100484.78;5117861;27;45561;-70
2023/01/13 02:19:47;;;;;;;;;1.00;0.00;;;;;11.50;73.25;100493.16;5088020;27;46431;-65
2023/01/13 02:22:36;;;;;;;;;1.00;0.00;;;;;11.50;72.90;100494.97;5097768;27;45471;-65
2023/01/13 02:25:13;;;;;;;;;0.00;0.00;;;;;11.50;73.02;100492.31;5090852;27;45615;-63
2023/01/13 02:28:13;;;;;;;;;1.00;0.00;;;;;11.45;73.32;100479.25;5077142;27;45332;-63
2023/01/13 02:34:00;;;;;;;;;0.00;0.00;;;;;11.39;73.37;100484.13;5078784;27;45535;-68
2023/01/13 02:36:36;;;;;;;;;0.00;0.00;;;;;11.39;73.70;100484.13;5084212;27;45386;-65
2023/01/13 02:39:26;;;;;;;;;0.00;0.00;;;;;11.29;73.96;100481.16;5076813;27;45189;-65
2023/01/13 02:44:50;;;;;;;;;0.00;0.00;;;;;11.28;73.95;100467.94;5075747;27;45337;-62
2023/01/13 02:47:25;;;;;;;;;0.67;0.00;;;;;11.34;74.01;100499.53;5109707;27;45450;-68
2023/01/13 02:50:14;;;;;;;;;0.00;0.00;;;;;11.27;73.83;100484.88;5116295;27;45246;-63
2023/01/13 02:52:44;;;;;;;;;1.67;0.00;;;;;11.32;74.24;100488.09;5098585;27;47211;-68
2023/01/13 02:55:17;;;;;;;;;0.00;0.00;;;;;11.21;74.04;100505.59;5096119;27;45423;-69
2023/01/13 02:57:44;;;;;;;;;0.00;0.00;;;;;11.28;73.91;100505.22;5098692;27;45308;-70
2023/01/13 03:00:12;;;;;;;;;0.00;0.00;;;;;11.28;74.59;100507.88;5089895;27;45246;-66
2023/01/13 03:02:37;;;;;;;;;0.00;0.00;;;;;11.25;74.22;100508.06;5114103;27;46014;-64
2023/01/13 03:05:04;;;;;;;;;1.00;0.00;;;;;11.26;74.27;100515.09;5118393;27;45902;-70
2023/01/13 03:08:24;;;;;;;;;0.00;0.00;;;;;11.28;74.19;100513.19;5120334;27;45459;-70
2023/01/13 03:11:01;;;;;;;;;0.00;0.00;;;;;11.30;74.08;100513.97;5032859;28;45284;-69
2023/01/13 03:13:51;;;;;;;;;0.33;0.00;;;;;11.30;74.20;100516.63;5094035;27;46294;-64
2023/01/13 03:16:22;;;;;;;;;2.00;0.00;;;;;11.34;74.16;100534.16;5120299;27;45416;-65
2023/01/13 03:19:02;;;;;;;;;3.00;0.00;;;;;11.31;73.60;100527.19;5105529;27;45402;-61
2023/01/13 03:21:43;;;;;;;;;3.00;0.00;;;;;11.35;73.44;100525.22;5103157;27;45469;-62
2023/01/13 03:24:41;;;;;;;;;0.00;0.00;;;;;11.42;73.41;100529.19;5087429;27;45480;-66
2023/01/13 03:27:38;;;;;;;;;3.00;0.00;;;;;11.47;73.73;100535.97;5097966;27;45468;-69
2023/01/13 03:30:14;;;;;;;;;0.00;0.00;;;;;11.49;73.18;100528.75;5102442;27;45673;-62
2023/01/13 03:32:43;;;;;;;;;1.33;0.33;;;;;11.51;72.64;100524.19;5108773;27;45506;-61
2023/01/13 03:35:31;;;;;;;;;1.00;0.00;;;;;11.54;72.69;100525.78;5089923;27;46168;-66
2023/01/13 03:38:07;;;;;;;;;0.00;0.00;;;;;11.51;72.39;100532.16;5099454;27;45345;-64
2023/01/13 03:40:40;;;;;;;;;2.00;0.00;;;;;11.53;72.21;100530.25;5099346;27;45350;-67
2023/01/13 03:46:00;;;;;;;;;1.33;0.00;;;;;11.56;72.13;100531.03;5111196;27;45912;-62
2023/01/13 03:48:28;;;;;;;;;1.00;0.00;;;;;11.57;71.86;100530.91;5109114;27;45590;-64
2023/01/13 03:51:02;;;;;;;;;2.00;0.00;;;;;11.52;72.11;100517.03;5082982;27;45291;-60
2023/01/13 03:53:37;;;;;;;;;0.00;0.00;;;;;11.60;71.85;100514.78;5099212;27;45271;-61
2023/01/13 03:56:24;;;;;;;;;0.00;0.00;;;;;11.64;72.10;100521.63;5118576;27;45462;-61
2023/01/13 03:58:52;;;;;;;;;2.00;0.00;;;;;11.65;71.95;100510.00;5109325;27;45514;-61
2023/01/13 04:01:27;;;;;;;;;0.00;0.00;;;;;11.70;71.51;100520.38;5117120;27;45255;-62
2023/01/13 04:04:01;;;;;;;;;1.00;1.00;;;;;11.69;71.51;100519.50;5087982;27;45655;-64
2023/01/13 04:06:45;;;;;;;;;0.00;0.00;;;;;11.73;71.54;100520.22;5115705;27;45300;-60
2023/01/13 04:09:22;;;;;;;;;0.00;0.00;;;;;11.73;70.97;100513.06;5117588;27;45320;-59
2023/01/13 04:12:10;;;;;;;;;0.00;0.00;;;;;11.69;71.27;100532.84;5108286;27;45456;-60
2023/01/13 04:14:36;;;;;;;;;0.00;0.00;;;;;11.70;71.36;100539.88;5119806;27;45923;-63
2023/01/13 04:17:02;;;;;;;;;1.00;0.00;;;;;11.66;70.88;100546.34;5117602;27;45436;-60
2023/01/13 04:19:27;;;;;;;;;0.00;0.00;;;;;11.63;71.02;100549.22;5117168;27;45536;-67
2023/01/13 04:21:53;;;;;;;;;2.00;0.00;;;;;11.60;71.05;100544.09;5122770;27;45437;-67
2023/01/13 04:24:18;;;;;;;;;3.00;0.00;;;;;11.59;71.07;100547.69;5120740;27;45346;-71
2023/01/13 04:26:43;;;;;;;;;0.00;0.00;;;;;11.57;70.88;100546.03;5099243;27;45485;-67
2023/01/13 04:29:09;;;;;;;;;2.00;0.00;;;;;11.55;70.92;100551.47;5114490;27;49006;-68
2023/01/13 04:31:34;;;;;;;;;0.00;0.00;;;;;11.51;70.91;100558.81;5098774;27;45480;-66
2023/01/13 04:34:02;;;;;;;;;0.00;0.00;;;;;11.40;70.65;100534.63;5116781;27;45530;-66
2023/01/13 04:36:28;;;;;;;;;1.33;0.00;;;;;11.32;70.90;100541.34;5119236;27;46094;-64
2023/01/13 04:38:54;;;;;;;;;1.00;0.00;;;;;11.36;71.14;100558.88;5090176;27;65156;-65
2023/01/13 04:41:19;;;;;;;;;3.00;0.00;;;;;11.34;70.75;100566.97;5078225;27;45436;-60
2023/01/13 04:43:47;;;;;;;;;0.00;0.00;;;;;11.28;70.91;100567.31;5078583;27;45525;-61
2023/01/13 04:46:13;;;;;;;;;2.00;0.00;;;;;11.35;70.17;100570.47;5088240;27;46449;-63
2023/01/13 04:48:38;;;;;;;;;0.00;0.00;;;;;11.33;70.14;100575.91;5098186;27;45423;-69
2023/01/13 04:51:04;;;;;;;;;2.67;0.00;;;;;11.35;70.18;100570.47;5098600;27;45349;-67
2023/01/13 04:53:29;;;;;;;;;2.00;0.67;;;;;11.31;69.65;100579.56;5098886;27;45308;-69
2023/01/13 04:55:55;;;;;;;;;1.00;0.00;;;;;11.21;69.95;100566.81;5097063;27;45852;-65
2023/01/13 04:58:20;;;;;;;;;1.67;0.00;;;;;11.26;69.63;100569.19;5098300;27;45270;-60
2023/01/13 05:00:45;;;;;;;;;2.67;0.00;;;;;11.20;69.45;100586.41;5097300;27;45399;-63
2023/01/13 05:03:11;;;;;;;;;3.67;0.00;;;;;11.18;70.13;100577.63;5081536;27;45509;-63
2023/01/13 05:05:36;;;;;;;;;0.00;0.00;;;;;11.13;69.33;100577.06;5084148;27;46821;-63
2023/01/13 05:08:03;;;;;;;;;0.67;0.00;;;;;11.13;69.57;100582.38;5077711;27;44787;-62
2023/01/13 05:10:28;;;;;;;;;0.00;0.00;;;;;11.04;68.95;100571.41;5085886;27;45484;-61
2023/01/13 05:18:28;;;;;;;;;1.00;0.00;;;;;10.92;69.57;100576.47;5093312;27;45440;-60
2023/01/13 05:20:53;;;;;;;;;0.67;0.67;;;;;10.99;68.98;100592.97;5117989;27;45280;-64
2023/01/13 05:26:03;;;;;;;;;0.33;0.00;;;;;10.95;68.65;100618.03;5092988;27;45808;-65
2023/01/13 05:28:32;;;;;;;;;1.67;0.00;;;;;10.86;68.77;100614.09;5077398;27;45682;-67
2023/01/13 05:30:58;;;;;;;;;0.00;0.00;;;;;10.93;68.93;100625.22;5109028;27;45525;-67
2023/01/13 05:33:23;;;;;;;;;0.33;0.33;;;;;10.88;69.30;100633.50;5107641;27;45612;-61
2023/01/13 05:35:49;;;;;;;;;3.00;0.00;;;;;10.92;69.58;100658.13;5107079;27;47915;-68
2023/01/13 05:38:16;;;;;;;;;0.33;0.00;;;;;10.90;69.39;100644.03;5117947;27;45526;-63
2023/01/13 05:43:27;;;;;;;;;0.00;0.00;;;;;10.89;69.84;100645.00;5107746;27;45332;-61
2023/01/13 05:45:57;;;;;;;;;0.00;0.00;;;;;10.90;69.93;100633.41;5083256;27;46308;-63
2023/01/13 05:48:26;;;;;;;;;0.00;0.00;;;;;10.83;69.45;100624.91;5097112;27;45325;-59
2023/01/13 05:50:52;;;;;;;;;1.33;0.00;;;;;10.87;69.66;100652.19;5113112;27;45582;-59
2023/01/13 05:53:18;;;;;;;;;0.00;0.00;;;;;10.84;69.00;100636.41;5102544;27;45575;-61
2023/01/13 05:55:44;;;;;;;;;0.67;0.67;;;;;10.82;69.64;100648.97;5098687;27;46258;-62
2023/01/13 05:58:13;;;;;;;;;0.67;0.00;;;;;10.77;69.86;100645.69;5095895;27;45205;-63
2023/01/13 06:00:39;;;;;;;;;0.67;0.00;;;;;10.78;69.58;100642.94;5123104;27;45429;-66
2023/01/13 06:03:04;;;;;;;;;3.00;1.00;;;;;10.76;69.38;100654.59;5075929;28;45493;-68
2023/01/13 06:05:30;;;;;;;;;4.33;0.00;;;;;10.68;68.70;100649.72;5092873;27;46248;-65
2023/01/13 06:07:57;;;;;;;;;0.00;0.00;;;;;10.70;69.17;100660.28;5081784;27;45445;-70
2023/01/13 06:10:23;;;;;;;;;5.33;0.33;;;;;10.74;68.93;100672.44;5106677;27;45455;-68
2023/01/13 06:12:49;;;;;;;;;4.00;0.00;;;;;10.68;69.28;100678.09;5082726;27;45310;-67
2023/01/13 06:15:14;;;;;;;;;0.00;0.00;;;;;10.56;69.36;100667.22;5076973;27;53535;-66
2023/01/13 06:17:39;;;;;;;;;0.00;0.00;;;;;10.56;68.74;100677.84;5082300;27;48865;-67
2023/01/13 06:20:08;;;;;;;;;0.00;0.00;;;;;10.63;69.43;100692.50;5096602;27;45504;-69
2023/01/13 06:22:38;;;;;;;;;1.00;0.67;;;;;10.58;69.10;100681.28;5117135;27;45701;-61
2023/01/13 06:25:11;;;;;;;;;1.33;0.00;;;;;10.62;69.15;100700.59;5102769;27;46191;-64
2023/01/13 06:27:37;;;;;;;;;0.25;0.00;;;;;10.60;69.24;100702.47;5109213;27;45466;-59
2023/01/13 06:30:03;;;;;;;;;2.67;0.00;;;;;10.60;68.73;100716.63;5101470;27;45386;-62
2023/01/13 06:32:33;;;;;;;;;1.00;0.33;;;;;10.51;69.14;100706.47;5100322;27;45428;-66
2023/01/13 06:35:05;;;;;;;;;0.67;0.00;;;;;10.54;69.13;100714.28;5081643;27;46206;-65
2023/01/13 06:37:32;;;;;;;;;0.33;0.33;;;;;10.51;68.30;100729.56;5100791;27;45431;-68
2023/01/13 06:40:00;;;;;;;;;1.67;0.00;;;;;10.54;69.03;100735.56;5102372;27;45415;-60
2023/01/13 06:45:12;;;;;;;;;1.00;1.00;;;;;10.52;68.54;100741.91;5099685;27;45858;-67
2023/01/13 06:47:37;;;;;;;;;2.50;0.75;;;;;10.46;69.11;100740.44;5098106;27;45333;-64
2023/01/13 06:50:03;;;;;;;;;0.00;0.00;;;;;10.50;68.88;100736.66;5099405;27;45381;-69
2023/01/13 06:52:29;;;;;;;;;2.00;1.50;;;;;10.53;68.82;100736.50;5098115;27;45290;-65
2023/01/13 06:54:56;;;;;;;;;0.00;0.00;;;;;10.48;68.35;100721.75;5100420;27;45351;-65
2023/01/13 06:57:21;;;;;;;;;1.00;0.00;;;;;10.48;68.24;100730.56;5101358;27;45289;-65
2023/01/13 06:59:47;;;;;;;;;1.50;0.75;;;;;10.49;67.75;100737.63;5101446;27;45449;-64
2023/01/13 07:02:13;;;;;;;;;3.00;1.67;;;;;10.56;67.58;100739.00;5119360;27;45627;-60
2023/01/13 07:04:38;;;;;;;;;2.33;1.00;;;;;10.56;67.29;100733.69;5103320;27;46776;-62
2023/01/13 07:07:04;;;;;;;;;5.00;0.00;;;;;10.61;67.21;100739.63;5105707;27;45438;-65
2023/01/13 07:09:29;;;;;;;;;1.00;1.00;;;;;10.54;67.33;100724.91;5113629;27;45435;-63
2023/01/13 07:11:55;;;;;;;;;1.00;0.00;;;;;10.64;67.51;100746.56;5102254;27;45393;-70
2023/01/13 07:17:03;;;;;;;;;3.67;1.00;;;;;10.70;67.27;100764.88;5099681;27;45671;-65
2023/01/13 07:19:29;;;;;;;;;2.00;0.00;;;;;10.61;67.19;100763.56;5120060;27;45316;-64
2023/01/13 07:21:54;;;;;;;;;3.00;0.67;;;;;10.64;66.36;100776.69;5119219;27;45332;-60
2023/01/13 07:24:21;;;;;;;;;3.00;1.00;;;;;10.71;67.09;100789.66;5124672;27;46048;-61
2023/01/13 07:26:46;;;;;;;;;1.67;1.00;;;;;10.68;66.88;100769.41;5103721;27;45400;-61
2023/01/13 07:29:12;;;;;;;;;0.33;0.33;;;;;10.77;66.63;100778.69;5117382;27;45504;-64
2023/01/13 07:31:38;;;;;;;;;1.00;1.00;;;;;10.79;67.08;100779.47;5120412;27;45595;-64
2023/01/13 07:34:05;;;;;;;;;1.00;1.00;;;;;10.78;65.89;100775.06;5116584;27;45431;-63
2023/01/13 07:36:31;;;;;;;;;1.00;1.00;;;;;10.83;66.15;100775.72;5117815;27;45245;-64
2023/01/13 07:38:56;;;;;;;;;2.00;0.67;;;;;10.76;65.94;100787.59;5119014;27;45334;-51
2023/01/13 07:44:09;;;;;;;;;2.00;2.00;;;;;10.86;66.08;100794.16;5089639;27;46394;-71
2023/01/13 07:46:36;;;;;;;;;7.33;0.33;;;;;10.75;66.56;100788.56;5102684;27;45458;-65
2023/01/13 07:49:02;;;;;;;;;2.00;2.00;;;;;10.65;66.93;100790.84;5088040;27;45586;-63
2023/01/13 07:51:28;;;;;;;;;0.00;0.00;;;;;10.63;67.20;100798.91;5088108;27;45615;-66
2023/01/13 07:53:53;;;;;;;;;1.00;1.00;;;;;10.63;67.18;100804.22;5085271;27;45515;-69
2023/01/13 07:56:19;;;;;;;;;4.67;1.00;;;;;10.58;67.28;100819.56;5105122;27;45508;-66
2023/01/13 07:58:49;;;;;;;;;3.33;2.00;;;;;10.64;67.56;100821.03;5095884;27;45410;-65
2023/01/13 08:01:15;;;;;;;;;3.33;0.00;;;;;10.64;67.57;100821.91;5082439;27;45468;-62
2023/01/13 08:03:41;;;;;;;;;5.00;1.00;;;;;10.67;67.09;100835.97;5097645;27;45557;-67
2023/01/13 08:06:08;;;;;;;;;0.00;0.00;;;;;10.63;67.97;100820.19;5082473;27;45475;-66
2023/01/13 08:08:34;;;;;;;;;3.00;2.00;;;;;10.62;67.97;100831.75;5077380;27;45378;-62
2023/01/13 08:11:04;;;;;;;;;3.67;1.00;;;;;10.55;67.96;100818.88;5092065;27;45407;-65
2023/01/13 08:13:30;;;;;;;;;1.00;1.00;;;;;10.54;67.85;100831.28;5096799;27;46275;-62
2023/01/13 08:16:04;;;;;;;;;2.00;0.00;;;;;10.55;68.21;100838.34;5095434;27;45452;-62
2023/01/13 08:18:31;;;;;;;;;1.00;1.00;;;;;10.54;68.35;100843.72;5093586;27;45530;-66
2023/01/13 08:21:01;;;;;;;;;2.33;1.00;;;;;10.53;68.25;100828.72;5095843;27;45523;-69
2023/01/13 08:23:26;;;;;;;;;2.00;1.00;;;;;10.56;67.89;100834.75;5080806;27;45456;-70
2023/01/13 08:25:52;;;;;;;;;2.00;1.00;;;;;10.57;67.70;100836.47;5083343;27;45561;-64
2023/01/13 08:28:17;;;;;;;;;2.00;2.00;;;;;10.59;67.86;100839.91;5087010;27;45395;-65
2023/01/13 08:30:42;;;;;;;;;1.33;0.00;;;;;10.59;67.83;100849.69;5081839;27;45309;-65
2023/01/13 08:33:10;;;;;;;;;3.00;1.67;;;;;10.53;68.62;100844.66;5085027;27;46339;-67
2023/01/13 08:35:39;;;;;;;;;4.00;1.00;;;;;10.57;68.15;100851.56;5094659;27;45370;-65
2023/01/13 08:38:05;;;;;;;;;3.00;1.00;;;;;10.58;67.92;100855.94;5108991;27;45513;-68
2023/01/13 08:40:32;;;;;;;;;3.00;3.00;;;;;10.63;67.98;100857.41;5083355;27;45384;-64
2023/01/13 08:43:01;;;;;;;;;1.00;1.00;;;;;10.62;68.15;100861.00;5100450;27;45364;-63
2023/01/13 08:45:26;;;;;;;;;2.00;0.33;;;;;10.64;68.51;100867.09;5091971;27;45550;-68
2023/01/13 08:47:52;;;;;;;;;1.00;1.00;;;;;10.57;68.22;100855.09;5089844;27;45978;-64
2023/01/13 08:50:18;;;;;;;;;6.00;1.00;;;;;10.57;68.66;100863.06;5086464;27;45500;-65
2023/01/13 08:52:44;;;;;;;;;1.67;1.00;;;;;10.61;68.37;100863.75;5081988;27;46960;-67
2023/01/13 08:55:10;;;;;;;;;5.00;2.00;;;;;10.56;68.30;100845.41;5095951;27;45464;-70
2023/01/13 08:57:36;;;;;;;;;3.00;0.33;;;;;10.56;67.65;100853.38;5092742;27;45313;-68
2023/01/13 09:00:04;;;;;;;;;1.75;1.75;;;;;10.58;68.34;100853.28;5090459;27;45574;-69
2023/01/13 09:02:29;;;;;;;;;1.33;1.00;;;;;10.60;68.09;100857.59;5083691;27;46071;-67
2023/01/13 09:04:55;;;;;;;;;3.00;1.00;;;;;10.53;67.98;100842.88;5087700;27;45412;-66
2023/01/13 09:07:20;;;;;;;;;2.67;1.00;;;;;10.70;67.76;100873.06;5092856;27;45443;-67
2023/01/13 09:09:46;;;;;;;;;1.67;1.67;;;;;10.71;67.34;100864.16;5109841;27;45578;-68
2023/01/13 09:14:59;;;;;;;;;1.00;1.00;;;;;10.80;67.21;100888.44;5084667;27;45798;-68
2023/01/13 09:17:24;;;;;;;;;2.00;0.67;;;;;10.76;66.90;100873.59;5094260;27;45514;-67
2023/01/13 09:19:50;;;;;;;;;1.00;1.00;;;;;10.78;67.63;100877.03;5097850;27;45455;-67
2023/01/13 09:22:18;;;;;;;;;1.67;1.67;;;;;10.76;67.45;100880.72;5079653;27;46425;-69
2023/01/13 09:24:44;;;;;;;;;5.33;2.00;;;;;10.78;67.66;100881.50;5078660;27;45397;-65
2023/01/13 09:27:11;;;;;;;;;1.00;1.00;;;;;10.78;67.75;100886.81;5089065;27;45346;-67
2023/01/13 09:29:37;;;;;;;;;2.33;2.00;;;;;10.75;67.61;100903.81;5092864;27;45695;-65
2023/01/13 09:32:03;;;;;;;;;39.25;30.25;;;;;10.74;67.70;100906.53;5105588;27;45760;-65
2023/01/13 09:37:36;;;;;;;;;3.25;2.00;;;;;10.79;67.55;100905.34;5080475;27;45517;-65
2023/01/13 09:40:04;;;;;;;;;4.00;2.00;;;;;10.83;66.28;100919.38;5093696;27;45413;-69
2023/01/13 09:45:41;;;;;;;;;4.33;2.00;;;;;10.89;66.95;100913.72;5097321;27;45316;-65
2023/01/13 09:48:15;;;;;;;;;2.67;1.33;;;;;10.98;66.21;100910.59;5088446;27;45390;-67
2023/01/13 09:50:53;;;;;;;;;2.00;2.00;;;;;11.04;66.44;100925.38;5113707;27;45241;-68
2023/01/13 09:53:27;;;;;;;;;6.00;1.67;;;;;11.07;65.98;100904.78;5085906;27;46189;-67
2023/01/13 09:55:54;;;;;;;;;5.67;2.00;;;;;11.21;65.65;100918.22;5090288;27;45250;-66
2023/01/13 09:58:20;;;;;;;;;3.00;0.33;;;;;11.31;64.31;100925.69;5096795;27;45879;-67
2023/01/13 10:00:54;;;;;;;;;2.33;1.67;;;;;11.37;63.72;100941.34;5096918;27;45464;-68
2023/01/13 10:03:31;;;;;;;;;4.33;1.00;;;;;11.40;63.91;100934.06;5095972;27;45883;-68
2023/01/13 10:06:18;;;;;;;;;1.00;1.00;;;;;11.37;64.31;100931.56;5082101;27;45403;-67
2023/01/13 10:08:46;;;;;;;;;2.33;1.00;;;;;11.36;63.95;100931.66;5096426;27;45445;-65
2023/01/13 10:14:19;;;;;;;;;0.33;0.00;;;;;11.41;64.71;100948.22;5077611;27;46007;-66
2023/01/13 10:17:01;;;;;;;;;5.00;2.00;;;;;11.41;64.50;100945.56;5108297;27;45444;-70
2023/01/13 10:19:40;;;;;;;;;1.33;1.00;;;;;11.46;63.76;100948.88;5117506;27;45360;-66
2023/01/13 10:22:14;;;;;;;;;3.00;1.00;;;;;11.50;63.54;100961.06;5118385;27;45395;-69
2023/01/13 10:25:08;;;;;;;;;1.67;1.00;;;;;11.56;63.30;100970.50;5133422;27;47397;-66
2023/01/13 10:27:37;;;;;;;;;3.00;1.67;;;;;11.57;63.42;100951.78;5117528;27;45434;-65
2023/01/13 10:30:18;;;;;;;;;0.00;0.00;;;;;11.58;63.52;100953.50;5085840;27;45445;-71
2023/01/13 10:32:51;;;;;;;;;3.00;1.33;;;;;11.56;63.10;100939.41;5077340;27;45373;-68
2023/01/13 10:35:17;;;;;;;;;2.33;1.33;;;;;11.69;62.26;100967.09;5081371;27;47974;-69
2023/01/13 10:37:56;;;;;;;;;1.67;0.33;;;;;11.79;62.81;100968.34;5112303;27;45254;-69
2023/01/13 10:40:21;;;;;;;;;1.00;1.00;;;;;11.78;62.76;100963.06;5096516;27;45383;-70
2023/01/13 10:42:47;;;;;;;;;1.67;0.00;;;;;11.80;62.40;100947.91;5096493;27;45467;-71
2023/01/13 10:45:32;;;;;;;;;1.00;1.00;;;;;11.87;61.91;100954.63;5090878;27;46576;-71
2023/01/13 10:48:06;;;;;;;;;3.67;0.33;;;;;11.93;61.72;100982.72;5079487;27;45431;-72
2023/01/13 10:50:35;;;;;;;;;2.00;0.33;;;;;11.97;61.98;100976.25;5076075;27;45472;-70
2023/01/13 10:53:15;;;;;;;;;2.00;0.67;;;;;12.13;61.84;100961.16;5093900;27;45623;-63
2023/01/13 10:55:40;;;;;;;;;3.00;2.00;;;;;12.24;60.71;100990.75;5096019;27;46225;-69
2023/01/13 10:58:20;;;;;;;;;1.67;0.67;;;;;12.24;60.71;100992.50;5095834;27;45321;-69
2023/01/13 11:00:48;;;;;;;;;1.00;1.00;;;;;12.26;61.52;100998.66;5099090;27;45453;-69
2023/01/13 11:03:17;;;;;;;;;0.00;0.00;;;;;12.25;60.83;100987.13;5087337;27;45391;-68
2023/01/13 11:06:03;;;;;;;;;1.00;0.00;;;;;12.24;61.21;100997.84;5088018;27;45412;-71
2023/01/13 11:08:43;;;;;;;;;3.00;1.00;;;;;12.17;61.04;100999.16;5093896;27;45452;-68
2023/01/13 11:11:34;;;;;;;;;1.00;1.00;;;;;12.29;60.98;101015.31;5091064;27;45465;-68
2023/01/13 11:16:54;;;;;;;;;5.33;0.67;;;;;12.07;61.96;100999.66;5094854;27;45280;-67
2023/01/13 11:19:23;;;;;;;;;1.67;0.67;;;;;12.18;62.35;101012.41;5116617;27;45547;-61
2023/01/13 11:21:54;;;;;;;;;1.00;1.00;;;;;12.21;62.51;101019.38;5117971;27;45446;-67
2023/01/13 11:24:38;;;;;;;;;1.33;1.00;;;;;12.17;62.28;101016.00;5113249;27;45287;-63
2023/01/13 11:27:14;;;;;;;;;3.00;0.33;;;;;12.17;62.05;101026.69;5094283;27;46040;-64
2023/01/13 11:30:11;;;;;;;;;0.67;0.67;;;;;12.24;62.22;101028.06;5108893;27;45305;-65
2023/01/13 11:32:59;;;;;;;;;1.33;0.33;;;;;12.23;61.11;101026.31;5111133;27;45320;-63
2023/01/13 11:35:27;;;;;;;;;3.00;2.00;;;;;12.20;61.29;101026.50;5098887;27;45403;-59
2023/01/13 11:38:00;;;;;;;;;1.00;0.00;;;;;12.21;61.41;101035.38;5082973;27;48212;-60
2023/01/13 11:40:49;;;;;;;;;0.67;0.67;;;;;12.33;61.60;101043.53;5078055;27;45387;-62
2023/01/13 11:43:27;;;;;;;;;1.00;1.00;;;;;12.47;60.68;101045.44;5070643;27;45410;-59
2023/01/13 11:45:57;;;;;;;;;1.33;1.00;;;;;12.73;59.36;101040.41;5098311;27;45421;-64
2023/01/13 11:48:29;;;;;;;;;1.00;1.00;;;;;12.78;58.85;101043.69;5098062;27;45400;-62
2023/01/13 11:51:28;;;;;;;;;0.00;0.00;;;;;12.81;59.58;101049.69;5098350;27;45285;-62
2023/01/13 11:54:02;;;;;;;;;5.33;1.33;;;;;13.01;58.69;101040.50;5092271;27;45447;-60
2023/01/13 11:56:30;;;;;;;;;2.00;1.00;;;;;13.13;58.37;101033.59;5077898;27;45411;-56
2023/01/13 11:59:26;;;;;;;;;1.33;1.33;;;;;13.05;57.34;101033.19;5077814;27;45431;-64
2023/01/13 12:02:22;;;;;;;;;2.33;1.00;;;;;12.98;57.76;101044.22;5078081;28;45298;-61
2023/01/13 12:05:29;;;;;;;;;3.67;2.00;;;;;12.95;58.00;101038.22;5087214;27;45551;-61
2023/01/13 12:08:19;;;;;;;;;1.00;1.00;;;;;13.02;58.25;101041.38;5039462;28;45693;-60
2023/01/13 12:11:08;;;;;;;;;2.00;1.00;;;;;12.93;57.56;101038.31;5092284;27;45318;-72
2023/01/13 12:13:36;;;;;;;;;1.00;0.00;;;;;12.99;57.68;101032.59;5098209;27;45440;-63
2023/01/13 12:16:19;;;;;;;;;1.33;1.33;;;;;12.86;57.77;101023.59;5095724;27;45430;-59
2023/01/13 12:19:06;;;;;;;;;1.33;1.00;;;;;12.88;57.24;101045.72;5097343;27;45278;-61
2023/01/13 12:22:00;;;;;;;;;2.00;2.00;;;;;12.91;57.53;101042.03;5098355;27;45654;-63
2023/01/13 12:24:36;;;;;;;;;2.00;2.00;;;;;12.85;56.33;101034.34;5093275;27;45509;-63
2023/01/13 12:27:12;;;;;;;;;2.00;1.00;;;;;13.01;56.81;101035.16;5099664;27;45358;-63
2023/01/13 12:29:38;;;;;;;;;1.00;1.00;;;;;13.05;55.89;101049.22;5098998;27;45359;-65